createdAt,value
2023-04-18T00:01:18.709Z,9.27
2023-04-18T00:03:48.406Z,10.00
2023-04-18T00:06:16.782Z,9.57
2023-04-18T00:08:44.844Z,9.63
2023-04-18T00:11:12.975Z,9.47
2023-04-18T00:13:41.592Z,10.30
2023-04-18T00:16:10.016Z,10.03
2023-04-18T00:18:39.945Z,10.47
2023-04-18T00:21:09.702Z,11.90
2023-04-18T00:23:38.619Z,11.10
2023-04-18T00:26:06.821Z,11.63
2023-04-18T00:28:34.887Z,11.00
2023-04-18T00:31:03.042Z,11.03
2023-04-18T00:33:33.381Z,10.73
2023-04-18T00:36:01.439Z,11.10
2023-04-18T00:38:30.985Z,12.10
2023-04-18T00:40:59.084Z,13.43
2023-04-18T00:43:27.144Z,11.67
2023-04-18T00:45:57.076Z,12.33
2023-04-18T00:48:26.064Z,12.63
2023-04-18T00:50:55.356Z,11.90
2023-04-18T00:53:23.521Z,11.40
2023-04-18T00:55:53.018Z,12.43
2023-04-18T00:58:21.460Z,11.77
2023-04-18T01:00:49.912Z,12.43
2023-04-18T01:03:18.423Z,11.87
2023-04-18T01:05:47.646Z,11.07
2023-04-18T01:08:15.802Z,11.33
2023-04-18T01:10:43.936Z,12.53
2023-04-18T01:13:14.413Z,11.93
2023-04-18T01:15:43.482Z,12.00
2023-04-18T01:18:11.881Z,11.47
2023-04-18T01:20:42.515Z,12.60
2023-04-18T01:23:11.422Z,12.17
2023-04-18T01:25:41.046Z,12.97
2023-04-18T01:28:09.600Z,12.33
2023-04-18T01:30:37.676Z,13.87
2023-04-18T01:33:06.039Z,13.03
2023-04-18T01:35:34.196Z,13.27
2023-04-18T01:38:02.364Z,13.00
2023-04-18T01:40:31.397Z,12.57
2023-04-18T01:43:02.579Z,13.43
2023-04-18T01:45:30.658Z,11.57
2023-04-18T01:47:58.754Z,11.83
2023-04-18T01:50:26.933Z,11.70
2023-04-18T01:52:55.397Z,12.80
2023-04-18T01:55:23.477Z,11.03
2023-04-18T01:57:51.886Z,11.60
2023-04-18T02:00:23.368Z,10.70
2023-04-18T02:02:52.000Z,9.87
2023-04-18T02:05:22.334Z,9.47
2023-04-18T02:07:50.842Z,10.57
2023-04-18T02:10:19.022Z,9.83
2023-04-18T02:12:47.159Z,9.73
2023-04-18T02:15:15.749Z,9.40
2023-04-18T02:17:45.688Z,9.53
2023-04-18T02:20:14.734Z,9.80
2023-04-18T02:22:42.979Z,9.30
2023-04-18T02:25:11.704Z,9.83
2023-04-18T02:27:40.402Z,8.80
2023-04-18T02:30:09.499Z,8.23
2023-04-18T02:32:37.741Z,8.77
2023-04-18T02:35:09.840Z,9.03
2023-04-18T02:37:38.016Z,9.00
2023-04-18T02:40:07.354Z,8.03
2023-04-18T02:42:35.497Z,8.93
2023-04-18T02:45:03.814Z,8.57
2023-04-18T02:47:40.529Z,8.13
2023-04-18T02:50:20.096Z,8.87
2023-04-18T02:52:48.397Z,8.63
2023-04-18T02:55:18.893Z,8.87
2023-04-18T02:57:47.647Z,8.50
2023-04-18T03:00:33.917Z,8.70
2023-04-18T03:03:20.731Z,8.97
2023-04-18T03:06:01.457Z,8.97
2023-04-18T03:08:31.340Z,9.00
2023-04-18T03:10:59.727Z,8.30
2023-04-18T03:13:30.635Z,9.57
2023-04-18T03:15:59.535Z,9.67
2023-04-18T03:18:29.061Z,8.90
2023-04-18T03:21:01.371Z,7.90
2023-04-18T03:23:31.339Z,12.70
2023-04-18T03:26:00.974Z,12.33
2023-04-18T03:28:32.681Z,8.50
2023-04-18T03:31:01.589Z,11.13
2023-04-18T03:33:30.317Z,10.57
2023-04-18T03:36:09.735Z,7.47
2023-04-18T03:38:40.667Z,7.97
2023-04-18T03:41:09.813Z,8.30
2023-04-18T03:43:40.166Z,8.23
2023-04-18T03:46:08.323Z,8.13
2023-04-18T03:48:37.701Z,8.90
2023-04-18T03:51:11.785Z,9.20
2023-04-18T03:53:40.553Z,8.00
2023-04-18T03:56:09.145Z,8.43
2023-04-18T03:58:58.749Z,8.37
2023-04-18T04:01:26.913Z,7.33
2023-04-18T04:03:55.649Z,7.97
2023-04-18T04:06:27.420Z,7.67
2023-04-18T04:08:59.120Z,7.50
2023-04-18T04:11:29.581Z,7.57
2023-04-18T04:13:58.136Z,7.87
2023-04-18T04:16:32.321Z,8.53
2023-04-18T04:19:01.405Z,7.23
2023-04-18T04:21:38.359Z,7.50
2023-04-18T04:24:09.564Z,7.60
2023-04-18T04:26:42.789Z,7.17
2023-04-18T04:29:16.916Z,8.50
2023-04-18T04:31:47.701Z,7.60
2023-04-18T04:34:22.758Z,8.37
2023-04-18T04:36:53.994Z,8.30
2023-04-18T04:39:24.705Z,8.13
2023-04-18T04:42:05.481Z,8.70
2023-04-18T04:44:44.522Z,8.60
2023-04-18T04:47:12.778Z,9.03
2023-04-18T04:49:41.195Z,10.27
2023-04-18T04:52:11.272Z,10.60
2023-04-18T04:54:39.516Z,10.03
2023-04-18T04:57:10.071Z,9.90
2023-04-18T04:59:38.224Z,10.57
2023-04-18T05:02:32.492Z,11.03
2023-04-18T05:05:01.041Z,11.80
2023-04-18T05:07:30.537Z,11.33
2023-04-18T05:09:58.706Z,11.30
2023-04-18T05:12:26.916Z,11.87
2023-04-18T05:14:55.041Z,12.57
2023-04-18T05:17:23.182Z,13.23
2023-04-18T05:19:51.921Z,11.73
2023-04-18T05:22:20.063Z,14.00
2023-04-18T05:24:49.631Z,12.30
2023-04-18T05:27:18.206Z,12.20
2023-04-18T05:29:47.644Z,13.23
2023-04-18T05:32:16.346Z,15.77
2023-04-18T05:34:44.470Z,12.27
2023-04-18T05:37:12.578Z,11.63
2023-04-18T05:39:40.803Z,11.27
2023-04-18T05:42:10.442Z,12.00
2023-04-18T05:44:38.676Z,10.87
2023-04-18T05:47:07.207Z,11.03
2023-04-18T05:49:35.386Z,11.30
2023-04-18T05:52:03.530Z,11.93
2023-04-18T05:54:31.598Z,10.27
2023-04-18T05:56:59.763Z,11.03
2023-04-18T05:59:29.904Z,11.17
2023-04-18T06:01:58.319Z,15.63
2023-04-18T06:04:26.599Z,15.20
2023-04-18T06:06:54.791Z,15.90
2023-04-18T06:09:22.849Z,17.47
2023-04-18T06:11:51.402Z,18.27
2023-04-18T06:14:19.559Z,17.03
2023-04-18T06:16:49.168Z,27.93
2023-04-18T06:19:17.328Z,28.13
2023-04-18T06:21:45.519Z,22.03
2023-04-18T06:24:13.875Z,22.00
2023-04-18T06:26:42.499Z,22.07
2023-04-18T06:29:10.638Z,25.67
2023-04-18T06:31:38.761Z,28.07
2023-04-18T06:34:08.881Z,28.60
2023-04-18T06:36:37.004Z,29.93
2023-04-18T06:39:05.159Z,29.73
2023-04-18T06:41:33.748Z,30.57
2023-04-18T06:44:03.348Z,31.37
2023-04-18T06:46:32.222Z,31.53
2023-04-18T06:49:00.467Z,33.00
2023-04-18T06:51:30.102Z,34.17
2023-04-18T06:53:58.627Z,33.90
2023-04-18T06:56:26.946Z,38.50
2023-04-18T06:58:55.038Z,34.60
2023-04-18T07:01:23.223Z,37.17
2023-04-18T07:03:51.439Z,35.40
2023-04-18T07:06:19.636Z,35.20
2023-04-18T07:08:49.491Z,35.13
2023-04-18T07:11:18.582Z,37.53
2023-04-18T07:13:47.438Z,36.70
2023-04-18T07:16:15.762Z,42.37
2023-04-18T07:18:44.005Z,33.57
2023-04-18T07:21:12.525Z,45.33
2023-04-18T07:23:40.852Z,46.47
2023-04-18T07:26:11.486Z,32.70
2023-04-18T07:28:39.584Z,41.80
2023-04-18T07:31:11.294Z,32.93
2023-04-18T07:33:39.603Z,37.10
2023-04-18T07:36:08.794Z,42.77
2023-04-18T07:38:36.898Z,35.53
2023-04-18T07:41:05.126Z,45.70
2023-04-18T07:43:34.648Z,40.33
2023-04-18T07:46:02.825Z,39.57
2023-04-18T07:48:31.337Z,46.23
2023-04-18T07:50:59.528Z,37.43
2023-04-18T07:53:27.717Z,41.43
2023-04-18T07:55:56.262Z,41.13
2023-04-18T07:58:24.479Z,55.90
2023-04-18T08:00:54.505Z,32.73
2023-04-18T08:03:22.809Z,40.97
2023-04-18T08:05:51.997Z,35.67
2023-04-18T08:08:20.113Z,34.83
2023-04-18T08:10:48.246Z,29.40
2023-04-18T08:13:18.008Z,31.00
2023-04-18T08:15:47.333Z,32.93
2023-04-18T08:18:16.896Z,51.33
2023-04-18T08:20:45.069Z,56.80
2023-04-18T08:23:13.978Z,26.77
2023-04-18T08:25:42.138Z,38.07
2023-04-18T08:28:10.933Z,31.07
2023-04-18T08:30:39.081Z,44.10
2023-04-18T08:33:07.317Z,35.00
2023-04-18T08:35:36.988Z,33.03
2023-04-18T08:38:05.107Z,38.20
2023-04-18T08:40:33.371Z,42.80
2023-04-18T08:43:02.203Z,46.17
2023-04-18T08:45:31.354Z,34.90
2023-04-18T08:48:01.641Z,51.40
2023-04-18T08:50:30.140Z,34.77
2023-04-18T08:53:00.915Z,35.93
2023-04-18T08:55:29.617Z,38.03
2023-04-18T08:57:57.967Z,39.77
2023-04-18T09:00:27.221Z,37.77
2023-04-18T09:02:57.157Z,31.33
2023-04-18T09:05:26.996Z,32.73
2023-04-18T09:07:56.201Z,33.57
2023-04-18T09:10:33.330Z,43.40
2023-04-18T09:13:03.292Z,29.07
2023-04-18T09:15:32.490Z,30.80
2023-04-18T09:18:02.906Z,29.17
2023-04-18T09:20:36.021Z,30.37
2023-04-18T09:23:04.937Z,30.93
2023-04-18T09:25:36.120Z,28.60
2023-04-18T09:28:04.692Z,27.70
2023-04-18T09:30:37.826Z,30.10
2023-04-18T09:33:07.649Z,27.03
2023-04-18T09:35:36.033Z,26.17
2023-04-18T09:38:04.551Z,26.07
2023-04-18T09:40:34.339Z,26.20
2023-04-18T09:43:02.504Z,24.63
2023-04-18T09:45:30.666Z,25.33
2023-04-18T09:47:58.831Z,23.37
2023-04-18T09:50:27.434Z,25.30
2023-04-18T09:52:55.641Z,23.70
2023-04-18T09:55:23.825Z,24.37
2023-04-18T09:57:53.360Z,24.57
2023-04-18T10:00:24.182Z,24.43
2023-04-18T10:02:55.374Z,23.83
2023-04-18T10:05:26.540Z,24.70
2023-04-18T10:07:54.976Z,25.00
2023-04-18T10:10:23.281Z,24.90
2023-04-18T10:12:53.928Z,22.60
2023-04-18T10:15:22.901Z,23.40
2023-04-18T10:20:28.301Z,24.47
2023-04-18T10:22:56.804Z,25.73
2023-04-18T10:25:50.600Z,24.57
2023-04-18T10:28:21.471Z,25.40
2023-04-18T10:30:52.248Z,24.60
2023-04-18T10:33:33.489Z,25.80
2023-04-18T10:36:14.903Z,28.00
2023-04-18T10:38:47.756Z,25.70
2023-04-18T10:41:17.338Z,37.73
2023-04-18T10:44:19.836Z,26.67
2023-04-18T10:47:33.968Z,28.07
2023-04-18T10:50:06.302Z,28.57
2023-04-18T10:52:37.664Z,29.37
2023-04-18T10:55:14.766Z,32.50
2023-04-18T10:57:43.500Z,28.60
2023-04-18T11:00:15.237Z,24.93
2023-04-18T11:02:50.226Z,23.23
2023-04-18T11:05:22.936Z,22.50
2023-04-18T11:07:51.221Z,22.70
2023-04-18T11:10:20.363Z,23.97
2023-04-18T11:12:48.953Z,25.50
2023-04-18T11:15:21.615Z,32.17
2023-04-18T11:17:57.117Z,26.77
2023-04-18T11:20:25.677Z,23.93
2023-04-18T11:22:54.690Z,25.33
2023-04-18T11:25:26.106Z,27.17
2023-04-18T11:27:55.229Z,31.07
2023-04-18T11:30:24.782Z,28.53
2023-04-18T11:32:54.244Z,30.03
2023-04-18T11:35:22.462Z,35.23
2023-04-18T11:37:51.316Z,30.47
2023-04-18T11:40:19.834Z,22.13
2023-04-18T11:42:47.945Z,38.80
2023-04-18T11:45:16.313Z,26.17
2023-04-18T11:47:48.114Z,28.23
2023-04-18T11:50:16.419Z,22.83
2023-04-18T11:52:44.697Z,26.67
2023-04-18T11:55:14.609Z,21.47
2023-04-18T11:57:43.023Z,24.33
2023-04-18T12:00:12.947Z,25.97
2023-04-18T12:02:42.141Z,27.63
2023-04-18T12:05:12.452Z,26.37
2023-04-18T12:07:41.974Z,25.77
2023-04-18T12:10:10.939Z,25.83
2023-04-18T12:12:39.117Z,25.17
2023-04-18T12:15:09.424Z,25.83
2023-04-18T12:17:38.078Z,21.13
2023-04-18T12:20:08.042Z,30.47
2023-04-18T12:22:42.035Z,27.90
2023-04-18T12:25:20.325Z,24.20
2023-04-18T12:27:52.279Z,23.50
2023-04-18T12:30:22.057Z,25.33
2023-04-18T12:32:51.097Z,22.93
2023-04-18T12:35:20.095Z,24.40
2023-04-18T12:37:49.670Z,25.43
2023-04-18T12:40:19.012Z,26.50
2023-04-18T12:42:47.456Z,24.20
2023-04-18T12:45:16.171Z,25.57
2023-04-18T12:47:45.320Z,24.73
2023-04-18T12:50:19.083Z,28.27
2023-04-18T12:52:47.255Z,25.73
2023-04-18T12:55:16.825Z,24.10
2023-04-18T12:57:44.964Z,26.40
2023-04-18T13:00:14.216Z,25.73
2023-04-18T13:02:43.621Z,24.73
2023-04-18T13:05:13.231Z,26.03
2023-04-18T13:07:42.534Z,26.63
2023-04-18T13:10:11.700Z,27.50
2023-04-18T13:12:41.515Z,25.77
2023-04-18T13:15:10.577Z,25.47
2023-04-18T13:17:38.845Z,25.20
2023-04-18T13:20:09.098Z,27.70
2023-04-18T13:22:37.332Z,27.70
2023-04-18T13:25:05.820Z,27.30
2023-04-18T13:27:33.937Z,25.87
2023-04-18T13:30:03.892Z,28.97
2023-04-18T13:32:32.467Z,26.50
2023-04-18T13:35:00.661Z,28.60
2023-04-18T13:37:28.781Z,27.63
2023-04-18T13:39:57.416Z,28.07
2023-04-18T13:42:25.925Z,29.10
2023-04-18T13:44:54.464Z,28.07
2023-04-18T13:47:24.003Z,27.60
2023-04-18T13:49:52.251Z,29.00
2023-04-18T13:52:20.384Z,28.00
2023-04-18T13:54:49.331Z,28.23
2023-04-18T13:57:17.475Z,31.23
2023-04-18T13:59:45.609Z,29.83
2023-04-18T14:02:14.013Z,29.70
2023-04-18T14:04:43.906Z,29.80
2023-04-18T14:07:12.177Z,28.87
2023-04-18T14:09:40.683Z,28.77
2023-04-18T14:12:08.935Z,30.70
2023-04-18T14:14:37.116Z,27.87
2023-04-18T14:17:05.229Z,29.17
2023-04-18T14:19:34.806Z,30.07
2023-04-18T14:22:04.306Z,29.03
2023-04-18T14:24:32.393Z,27.40
2023-04-18T14:27:01.773Z,27.50
2023-04-18T14:29:29.900Z,28.47
2023-04-18T14:31:58.120Z,28.37
2023-04-18T14:34:26.288Z,27.80
2023-04-18T14:36:54.766Z,25.97
2023-04-18T14:39:24.769Z,26.50
2023-04-18T14:41:54.833Z,26.63
2023-04-18T14:44:22.938Z,26.03
2023-04-18T14:46:51.096Z,27.27
2023-04-18T14:49:19.719Z,26.13
2023-04-18T14:51:47.885Z,25.97
2023-04-18T14:54:16.009Z,27.33
2023-04-18T14:56:45.499Z,27.23
2023-04-18T14:59:16.476Z,28.10
2023-04-18T15:01:45.094Z,27.70
2023-04-18T15:04:13.546Z,27.57
2023-04-18T15:06:42.226Z,25.60
2023-04-18T15:09:10.333Z,27.17
2023-04-18T15:11:38.715Z,27.07
2023-04-18T15:14:08.217Z,27.47
2023-04-18T15:16:38.122Z,25.77
2023-04-18T15:19:06.649Z,27.67
2023-04-18T15:21:34.795Z,26.87
2023-04-18T15:24:03.278Z,26.83
2023-04-18T15:26:33.141Z,27.63
2023-04-18T15:29:02.606Z,26.50
2023-04-18T15:31:32.603Z,27.23
2023-04-18T15:34:00.854Z,29.30
2023-04-18T15:36:28.999Z,29.27
2023-04-18T15:38:57.112Z,27.53
2023-04-18T15:41:25.314Z,27.57
2023-04-18T15:43:54.000Z,29.03
2023-04-18T15:46:22.393Z,30.77
2023-04-18T15:48:52.198Z,30.27
2023-04-18T15:51:20.364Z,29.90
2023-04-18T15:53:48.482Z,28.97
2023-04-18T15:56:16.609Z,29.93
2023-04-18T15:58:45.189Z,28.67
2023-04-18T16:01:15.916Z,29.80
2023-04-18T16:03:44.508Z,30.40
2023-04-18T16:06:15.252Z,31.97
2023-04-18T16:08:43.377Z,31.73
2023-04-18T16:11:11.476Z,30.93
2023-04-18T16:13:39.618Z,29.60
2023-04-18T16:16:08.346Z,30.70
2023-04-18T16:18:36.505Z,30.13
2023-04-18T16:21:04.790Z,30.73
2023-04-18T16:23:34.304Z,28.53
2023-04-18T16:26:02.956Z,28.60
2023-04-18T16:28:31.044Z,29.20
2023-04-18T16:30:59.264Z,27.93
2023-04-18T16:33:27.557Z,28.73
2023-04-18T16:35:57.784Z,28.90
2023-04-18T16:38:27.371Z,29.10
2023-04-18T16:40:57.642Z,28.40
2023-04-18T16:43:26.984Z,28.80
2023-04-18T16:45:56.509Z,28.17
2023-04-18T16:48:24.759Z,28.03
2023-04-18T16:50:52.973Z,27.13
2023-04-18T16:53:22.282Z,27.70
2023-04-18T16:55:50.585Z,26.10
2023-04-18T16:58:20.289Z,26.83
2023-04-18T17:00:48.416Z,27.07
2023-04-18T17:03:16.629Z,26.00
2023-04-18T17:05:44.916Z,25.40
2023-04-18T17:08:13.000Z,25.13
2023-04-18T17:10:41.139Z,25.23
2023-04-18T17:13:09.370Z,23.90
2023-04-18T17:15:39.310Z,24.33
2023-04-18T17:18:07.473Z,22.17
2023-04-18T17:20:36.167Z,21.80
2023-04-18T17:23:04.289Z,22.70
2023-04-18T17:25:32.359Z,22.07
2023-04-18T17:28:02.241Z,21.10
2023-04-18T17:30:30.492Z,21.20
2023-04-18T17:33:00.422Z,20.87
2023-04-18T17:35:28.667Z,19.83
2023-04-18T17:37:56.881Z,18.90
2023-04-18T17:40:25.171Z,18.40
2023-04-18T17:42:53.291Z,18.27
2023-04-18T17:45:21.552Z,17.13
2023-04-18T17:47:50.950Z,18.27
2023-04-18T17:50:20.702Z,17.30
2023-04-18T17:52:48.959Z,17.43
2023-04-18T17:55:17.166Z,17.13
2023-04-18T17:57:45.339Z,17.57
2023-04-18T18:00:14.698Z,17.87
2023-04-18T18:02:43.403Z,17.63
2023-04-18T18:05:13.672Z,18.07
2023-04-18T18:07:47.467Z,17.60
2023-04-18T18:10:19.051Z,17.50
2023-04-18T18:12:47.204Z,18.03
2023-04-18T18:15:15.699Z,19.10
2023-04-18T18:17:43.863Z,17.70
2023-04-18T18:20:12.037Z,19.23
2023-04-18T18:22:40.153Z,19.33
2023-04-18T18:25:10.641Z,20.20
2023-04-18T18:27:38.814Z,19.03
2023-04-18T18:30:08.431Z,20.20
2023-04-18T18:32:36.576Z,19.40
2023-04-18T18:35:06.082Z,20.73
2023-04-18T18:37:34.231Z,22.17
2023-04-18T18:40:04.540Z,22.83
2023-04-18T18:42:34.441Z,25.20
2023-04-18T18:45:02.549Z,23.37
2023-04-18T18:47:31.465Z,22.63
2023-04-18T18:49:59.605Z,22.53
2023-04-18T18:52:29.803Z,24.20
2023-04-18T18:54:58.426Z,22.50
2023-04-18T18:57:26.653Z,25.13
2023-04-18T18:59:56.153Z,25.30
2023-04-18T19:02:24.577Z,23.03
2023-04-18T19:04:52.932Z,24.00
2023-04-18T19:07:21.112Z,24.37
2023-04-18T19:09:49.631Z,25.20
2023-04-18T19:12:17.896Z,24.43
2023-04-18T19:14:46.900Z,24.27
2023-04-18T19:17:17.695Z,25.57
2023-04-18T19:19:46.286Z,24.60
2023-04-18T19:22:14.415Z,26.50
2023-04-18T19:24:42.508Z,24.07
2023-04-18T19:27:10.579Z,25.37
2023-04-18T19:29:38.703Z,24.20
2023-04-18T19:32:07.523Z,27.00
2023-04-18T19:34:37.125Z,25.43
2023-04-18T19:37:05.544Z,24.03
2023-04-18T19:39:33.663Z,27.00
2023-04-18T19:42:03.934Z,24.33
2023-04-18T19:44:32.478Z,25.13
2023-04-18T19:47:00.594Z,25.97
2023-04-18T19:49:28.773Z,27.07
2023-04-18T19:51:59.673Z,24.07
2023-04-18T19:54:27.808Z,27.93
2023-04-18T19:56:56.562Z,26.93
2023-04-18T19:59:24.677Z,25.60
2023-04-18T20:01:52.848Z,23.53
2023-04-18T20:04:22.252Z,25.23
2023-04-18T20:06:50.539Z,23.73
2023-04-18T20:09:20.038Z,23.37
2023-04-18T20:11:48.619Z,23.70
2023-04-18T20:14:16.734Z,21.37
2023-04-18T20:16:46.212Z,22.00
2023-04-18T20:19:14.913Z,19.97
2023-04-18T20:21:43.305Z,21.10
2023-04-18T20:24:11.342Z,20.57
2023-04-18T20:26:40.853Z,20.30
2023-04-18T20:29:09.117Z,20.10
2023-04-18T20:31:42.178Z,19.87
2023-04-18T20:34:11.037Z,18.97
2023-04-18T20:36:41.655Z,19.03
2023-04-18T20:39:09.885Z,20.00
2023-04-18T20:41:38.034Z,19.67
2023-04-18T20:44:10.068Z,20.10
2023-04-18T20:46:38.257Z,19.80
2023-04-18T20:49:06.550Z,20.10
2023-04-18T20:51:35.794Z,19.23
2023-04-18T20:54:03.873Z,19.10
2023-04-18T20:56:32.108Z,18.77
2023-04-18T20:59:00.657Z,18.80
2023-04-18T21:01:30.265Z,20.27
2023-04-18T21:03:58.661Z,20.50
2023-04-18T21:06:28.429Z,20.87
2023-04-18T21:08:56.678Z,21.10
2023-04-18T21:11:24.806Z,22.27
2023-04-18T21:13:53.276Z,21.43
2023-04-18T21:16:21.443Z,23.53
2023-04-18T21:18:50.982Z,25.70
2023-04-18T21:21:19.156Z,24.47
2023-04-18T21:23:47.273Z,23.53
2023-04-18T21:26:15.861Z,23.50
2023-04-18T21:28:54.255Z,21.83
2023-04-18T21:31:22.376Z,20.37
2023-04-18T21:33:54.779Z,20.50
2023-04-18T21:36:22.986Z,21.10
2023-04-18T21:38:53.058Z,20.60
2023-04-18T21:41:21.729Z,20.57
2023-04-18T21:43:49.861Z,20.23
2023-04-18T21:46:18.274Z,19.13
2023-04-18T21:48:47.912Z,18.70
2023-04-18T21:51:17.930Z,18.83
2023-04-18T21:53:46.533Z,19.70
2023-04-18T21:56:15.041Z,19.57
2023-04-18T21:58:43.132Z,18.87
2023-04-18T22:01:11.372Z,18.97
2023-04-18T22:03:39.829Z,19.27
2023-04-18T22:06:08.155Z,19.83
2023-04-18T22:08:38.099Z,20.87
2023-04-18T22:11:06.499Z,20.10
2023-04-18T22:13:34.669Z,19.13
2023-04-18T22:16:03.743Z,21.23
2023-04-18T22:18:33.697Z,21.10
2023-04-18T22:21:02.429Z,21.73
2023-04-18T22:23:30.744Z,24.40
2023-04-18T22:26:00.322Z,24.50
2023-04-18T22:28:28.969Z,23.83
2023-04-18T22:30:57.200Z,23.47
2023-04-18T22:33:25.448Z,27.23
2023-04-18T22:35:54.247Z,27.27
2023-04-18T22:38:22.412Z,25.87
2023-04-18T22:40:50.515Z,35.03
2023-04-18T22:43:22.812Z,32.67
2023-04-18T22:45:51.286Z,31.07
2023-04-18T22:48:19.501Z,39.00
2023-04-18T22:50:49.768Z,35.93
2023-04-18T22:53:18.117Z,33.17
2023-04-18T22:55:46.365Z,35.40
2023-04-18T22:58:14.594Z,34.20
2023-04-18T23:00:44.120Z,47.87
2023-04-18T23:03:12.850Z,37.10
2023-04-18T23:05:41.437Z,47.37
2023-04-18T23:08:09.666Z,46.50
2023-04-18T23:10:37.793Z,44.33
2023-04-18T23:13:05.899Z,37.97
2023-04-18T23:15:34.116Z,41.40
2023-04-18T23:18:04.367Z,37.63
2023-04-18T23:20:32.477Z,41.90
2023-04-18T23:23:00.649Z,38.20
2023-04-18T23:25:29.155Z,34.03
2023-04-18T23:27:57.273Z,32.97
2023-04-18T23:30:26.576Z,34.57
2023-04-18T23:32:55.088Z,30.87
2023-04-18T23:35:24.769Z,33.60
2023-04-18T23:37:52.882Z,29.63
2023-04-18T23:40:21.485Z,29.27
2023-04-18T23:42:49.957Z,25.93
2023-04-18T23:45:18.223Z,25.47
2023-04-18T23:47:46.372Z,25.40
2023-04-18T23:50:14.561Z,23.00
2023-04-18T23:52:44.007Z,21.40
2023-04-18T23:55:12.169Z,21.13
2023-04-18T23:57:40.735Z,21.23
